createdAt,value
2018-10-17T00:00:06.160Z,15.00
2018-10-17T00:01:41.775Z,17.20
2018-10-17T00:03:17.434Z,13.00
2018-10-17T00:04:53.761Z,16.80
2018-10-17T00:06:29.728Z,18.80
2018-10-17T00:08:05.139Z,13.00
2018-10-17T00:09:40.658Z,18.80
2018-10-17T00:11:17.256Z,21.40
2018-10-17T00:12:52.823Z,14.60
2018-10-17T00:14:28.054Z,10.00
2018-10-17T00:16:03.562Z,17.20
2018-10-17T00:17:43.925Z,16.00
2018-10-17T00:19:21.001Z,15.20
2018-10-17T00:20:56.613Z,15.60
2018-10-17T00:22:31.850Z,9.00
2018-10-17T00:24:07.558Z,10.80
2018-10-17T00:25:43.322Z,12.00
2018-10-17T00:27:18.629Z,8.80
2018-10-17T00:28:54.044Z,9.00
2018-10-17T00:30:29.232Z,9.00
2018-10-17T00:32:04.758Z,10.80
2018-10-17T00:33:41.311Z,13.40
2018-10-17T00:35:17.485Z,7.60
2018-10-17T00:36:53.143Z,7.00
2018-10-17T00:38:28.445Z,10.00
2018-10-17T00:40:05.130Z,9.00
2018-10-17T00:41:40.851Z,9.00
2018-10-17T00:43:16.640Z,9.00
2018-10-17T00:44:54.270Z,9.60
2018-10-17T00:46:29.796Z,10.80
2018-10-17T00:48:05.331Z,10.80
2018-10-17T00:49:40.671Z,10.00
2018-10-17T00:51:16.760Z,10.60
2018-10-17T00:52:52.727Z,9.20
2018-10-17T00:54:28.374Z,11.20
2018-10-17T00:56:04.279Z,10.20
2018-10-17T00:57:39.452Z,9.40
2018-10-17T00:59:15.979Z,10.00
2018-10-17T01:00:51.476Z,10.00
2018-10-17T01:02:26.751Z,7.60
2018-10-17T01:04:02.887Z,9.60
2018-10-17T01:05:38.367Z,8.60
2018-10-17T01:07:13.946Z,9.60
2018-10-17T01:08:49.374Z,11.60
2018-10-17T01:10:24.953Z,6.80
2018-10-17T01:12:00.788Z,10.40
2018-10-17T01:13:35.826Z,8.20
2018-10-17T01:15:11.985Z,9.00
2018-10-17T01:16:47.122Z,9.20
2018-10-17T01:18:22.210Z,10.40
2018-10-17T01:19:57.531Z,9.00
2018-10-17T01:21:33.112Z,8.20
2018-10-17T01:23:08.899Z,10.00
2018-10-17T01:24:45.234Z,6.80
2018-10-17T01:26:21.028Z,7.00
2018-10-17T01:28:01.115Z,9.00
2018-10-17T01:29:36.534Z,14.20
2018-10-17T01:31:12.504Z,12.60
2018-10-17T01:32:47.833Z,9.40
2018-10-17T01:34:23.693Z,14.60
2018-10-17T01:35:58.891Z,7.60
2018-10-17T01:37:34.529Z,9.20
2018-10-17T01:39:11.331Z,7.00
2018-10-17T01:40:46.816Z,12.40
2018-10-17T01:42:22.594Z,13.80
2018-10-17T01:43:57.921Z,11.00
2018-10-17T01:45:33.251Z,12.60
2018-10-17T01:47:08.796Z,10.80
2018-10-17T01:48:44.359Z,9.60
2018-10-17T01:50:20.260Z,6.80
2018-10-17T01:51:55.534Z,6.40
2018-10-17T01:53:31.341Z,10.00
2018-10-17T01:55:07.666Z,12.20
2018-10-17T01:56:43.033Z,11.60
2018-10-17T01:58:19.808Z,14.80
2018-10-17T01:59:55.111Z,12.80
2018-10-17T02:01:32.661Z,11.60
2018-10-17T02:03:07.997Z,12.20
2018-10-17T02:04:43.522Z,7.00
2018-10-17T02:06:19.416Z,15.20
2018-10-17T02:07:54.712Z,12.00
2018-10-17T02:09:31.352Z,12.20
2018-10-17T02:11:07.642Z,12.00
2018-10-17T02:12:43.285Z,14.60
2018-10-17T02:14:18.283Z,12.00
2018-10-17T02:15:54.647Z,10.40
2018-10-17T02:17:29.754Z,12.20
2018-10-17T02:19:04.884Z,13.20
2018-10-17T02:20:40.917Z,12.00
2018-10-17T02:22:16.502Z,3.80
2018-10-17T02:23:51.600Z,13.00
2018-10-17T02:25:26.722Z,12.00
2018-10-17T02:27:01.915Z,12.40
2018-10-17T02:28:37.784Z,6.80
2018-10-17T02:30:14.567Z,11.60
2018-10-17T02:31:50.043Z,7.00
2018-10-17T02:33:25.259Z,11.00
2018-10-17T02:35:05.844Z,12.40
2018-10-17T02:36:41.320Z,7.00
2018-10-17T02:38:16.692Z,9.40
2018-10-17T02:39:51.904Z,9.00
2018-10-17T02:41:28.243Z,9.40
2018-10-17T02:43:03.902Z,5.60
2018-10-17T02:44:39.240Z,13.00
2018-10-17T02:46:14.296Z,11.20
2018-10-17T02:47:49.368Z,13.80
2018-10-17T02:49:25.728Z,9.80
2018-10-17T02:51:01.579Z,9.00
2018-10-17T02:52:42.318Z,4.00
2018-10-17T02:54:17.502Z,8.80
2018-10-17T02:55:52.914Z,11.20
2018-10-17T02:57:28.136Z,9.20
2018-10-17T02:59:05.065Z,10.00
2018-10-17T03:00:40.365Z,12.00
2018-10-17T03:02:15.517Z,10.80
2018-10-17T03:03:50.841Z,10.00
2018-10-17T03:05:26.034Z,10.40
2018-10-17T03:07:01.876Z,12.80
2018-10-17T03:08:37.548Z,12.60
2018-10-17T03:10:12.617Z,12.80
2018-10-17T03:11:48.084Z,10.80
2018-10-17T03:13:23.383Z,11.20
2018-10-17T03:14:59.332Z,7.40
2018-10-17T03:16:34.301Z,8.20
2018-10-17T03:18:09.512Z,16.40
2018-10-17T03:19:44.802Z,12.00
2018-10-17T03:21:20.147Z,12.60
2018-10-17T03:22:55.893Z,9.60
2018-10-17T03:24:31.013Z,9.80
2018-10-17T03:26:06.424Z,12.00
2018-10-17T03:27:41.816Z,8.60
2018-10-17T03:29:17.145Z,10.60
2018-10-17T03:30:55.649Z,9.60
2018-10-17T03:32:32.464Z,12.60
2018-10-17T03:34:10.000Z,11.60
2018-10-17T03:35:45.296Z,12.60
2018-10-17T03:37:20.366Z,4.80
2018-10-17T03:38:55.673Z,15.00
2018-10-17T03:40:33.244Z,12.60
2018-10-17T03:42:09.221Z,12.00
2018-10-17T03:43:44.670Z,18.40
2018-10-17T03:45:20.577Z,15.80
2018-10-17T03:46:56.032Z,12.40
2018-10-17T03:48:32.419Z,12.20
2018-10-17T03:50:08.200Z,12.60
2018-10-17T03:51:44.036Z,12.00
2018-10-17T03:53:23.449Z,16.40
2018-10-17T03:54:58.737Z,17.80
2018-10-17T03:56:36.267Z,36.40
2018-10-17T03:58:11.735Z,19.20
2018-10-17T03:59:46.949Z,12.40
2018-10-17T04:01:24.486Z,16.80
2018-10-17T04:03:00.033Z,18.20
2018-10-17T04:04:37.861Z,14.20
2018-10-17T04:06:15.067Z,11.20
2018-10-17T04:07:51.032Z,12.80
2018-10-17T04:09:26.753Z,10.40
2018-10-17T04:11:02.335Z,12.80
2018-10-17T04:12:37.738Z,12.20
2018-10-17T04:14:12.912Z,6.80
2018-10-17T04:15:48.221Z,14.60
2018-10-17T04:17:25.157Z,10.00
2018-10-17T04:19:03.867Z,7.80
2018-10-17T04:20:39.573Z,9.20
2018-10-17T04:22:15.379Z,13.80
2018-10-17T04:23:51.921Z,16.80
2018-10-17T04:25:30.243Z,12.60
2018-10-17T04:27:05.540Z,14.20
2018-10-17T04:28:40.699Z,14.20
2018-10-17T04:30:17.380Z,15.00
2018-10-17T04:31:53.591Z,15.20
2018-10-17T04:33:29.156Z,17.40
2018-10-17T04:35:04.504Z,15.00
2018-10-17T04:36:40.265Z,12.60
2018-10-17T04:38:17.424Z,13.80
2018-10-17T04:39:53.045Z,20.20
2018-10-17T04:41:28.292Z,16.00
2018-10-17T04:43:04.159Z,15.00
2018-10-17T04:44:39.544Z,15.20
2018-10-17T04:46:15.270Z,18.40
2018-10-17T04:47:51.116Z,13.80
2018-10-17T04:49:27.462Z,16.00
2018-10-17T04:51:05.363Z,17.60
2018-10-17T04:52:41.044Z,16.00
2018-10-17T04:54:17.231Z,15.80
2018-10-17T04:55:53.014Z,19.40
2018-10-17T04:57:28.367Z,17.20
2018-10-17T04:59:03.667Z,13.80
2018-10-17T05:00:40.314Z,12.20
2018-10-17T05:02:17.531Z,15.40
2018-10-17T05:03:54.160Z,18.20
2018-10-17T05:05:29.667Z,16.00
2018-10-17T05:07:09.356Z,15.00
2018-10-17T05:08:44.973Z,13.60
2018-10-17T05:10:20.366Z,13.40
2018-10-17T05:11:56.146Z,17.20
2018-10-17T05:13:32.895Z,13.80
2018-10-17T05:15:09.334Z,15.40
2018-10-17T05:16:44.652Z,19.00
2018-10-17T05:18:20.283Z,16.00
2018-10-17T05:19:58.340Z,18.00
2018-10-17T05:21:34.017Z,16.60
2018-10-17T05:23:09.402Z,18.60
2018-10-17T05:24:44.968Z,18.00
2018-10-17T05:26:21.750Z,18.60
2018-10-17T05:27:57.387Z,17.60
2018-10-17T05:29:32.498Z,14.20
2018-10-17T05:31:07.934Z,16.80
2018-10-17T05:32:43.066Z,18.00
2018-10-17T05:34:19.276Z,12.60
2018-10-17T05:35:54.555Z,12.40
2018-10-17T05:37:29.992Z,16.40
2018-10-17T05:39:06.105Z,19.20
2018-10-17T05:40:41.718Z,16.20
2018-10-17T05:42:18.466Z,14.60
2018-10-17T05:43:54.849Z,16.40
2018-10-17T05:45:31.087Z,17.60
2018-10-17T05:47:07.124Z,16.80
2018-10-17T05:48:47.276Z,17.00
2018-10-17T05:50:23.356Z,13.00
2018-10-17T05:51:59.174Z,16.00
2018-10-17T05:53:34.676Z,15.40
2018-10-17T05:55:10.911Z,19.80
2018-10-17T05:56:48.105Z,19.40
2018-10-17T05:58:24.890Z,18.20
2018-10-17T06:00:01.434Z,17.20
2018-10-17T06:03:24.401Z,20.40
2018-10-17T06:06:42.426Z,27.00
2018-10-17T06:08:18.380Z,21.40
2018-10-17T06:09:57.729Z,27.40
2018-10-17T06:11:35.181Z,19.40
2018-10-17T06:13:11.448Z,21.20
2018-10-17T06:14:50.278Z,20.80
2018-10-17T06:16:30.280Z,22.40
2018-10-17T06:18:10.852Z,16.00
2018-10-17T06:19:49.354Z,18.60
2018-10-17T06:21:26.843Z,19.40
2018-10-17T06:23:02.094Z,15.40
2018-10-17T06:24:39.040Z,16.00
2018-10-17T06:26:16.211Z,18.20
2018-10-17T06:27:53.730Z,11.80
2018-10-17T06:29:29.543Z,21.40
2018-10-17T06:31:05.598Z,20.00
2018-10-17T06:32:42.439Z,17.80
2018-10-17T06:34:18.799Z,21.00
2018-10-17T06:35:55.712Z,17.60
2018-10-17T06:37:34.030Z,15.00
2018-10-17T06:39:11.725Z,16.40
2018-10-17T06:40:48.696Z,18.60
2018-10-17T06:42:26.835Z,19.00
2018-10-17T06:44:04.335Z,18.40
2018-10-17T06:45:41.192Z,18.00
2018-10-17T06:47:17.488Z,15.60
2018-10-17T06:48:52.777Z,17.60
2018-10-17T06:50:28.700Z,21.80
2018-10-17T06:52:05.233Z,21.00
2018-10-17T06:53:41.439Z,19.20
2018-10-17T06:55:19.926Z,21.00
2018-10-17T06:56:56.429Z,24.00
2018-10-17T06:58:34.243Z,18.60
2018-10-17T07:00:10.763Z,21.60
2018-10-17T07:01:47.498Z,8.20
2018-10-17T07:03:30.699Z,15.60
2018-10-17T07:05:07.781Z,19.00
2018-10-17T07:06:47.331Z,18.60
2018-10-17T07:08:24.553Z,19.60
2018-10-17T07:10:00.655Z,18.40
2018-10-17T07:11:37.242Z,15.40
2018-10-17T07:13:13.349Z,19.40
2018-10-17T07:16:32.745Z,24.40
2018-10-17T07:18:15.011Z,19.40
2018-10-17T07:19:51.227Z,21.00
2018-10-17T07:21:30.629Z,18.40
2018-10-17T07:23:08.655Z,17.00
2018-10-17T07:24:47.265Z,13.80
2018-10-17T07:26:30.974Z,24.40
2018-10-17T07:28:08.740Z,16.20
2018-10-17T07:29:44.644Z,19.80
2018-10-17T07:31:21.083Z,19.40
2018-10-17T07:32:58.130Z,22.60
2018-10-17T07:34:33.877Z,11.80
2018-10-17T07:36:15.245Z,21.60
2018-10-17T07:37:55.052Z,22.00
2018-10-17T07:39:31.285Z,22.80
2018-10-17T07:41:07.806Z,19.40
2018-10-17T07:42:44.953Z,22.20
2018-10-17T07:44:22.439Z,17.20
2018-10-17T07:45:59.346Z,17.60
2018-10-17T07:47:35.289Z,22.40
2018-10-17T07:49:11.482Z,21.60
2018-10-17T07:50:47.412Z,19.40
2018-10-17T07:52:23.975Z,23.80
2018-10-17T07:54:00.094Z,22.20
2018-10-17T07:55:36.654Z,20.00
2018-10-17T07:57:14.800Z,19.00
2018-10-17T07:58:51.155Z,25.60
2018-10-17T08:00:26.931Z,21.80
2018-10-17T08:02:05.628Z,20.60
2018-10-17T08:03:45.198Z,23.00
2018-10-17T08:05:24.412Z,25.40
2018-10-17T08:07:01.651Z,23.40
2018-10-17T08:08:38.024Z,25.80
2018-10-17T08:10:15.160Z,24.80
2018-10-17T08:11:52.235Z,23.40
2018-10-17T08:14:00.810Z,19.60
2018-10-17T08:15:40.704Z,21.20
2018-10-17T08:17:16.653Z,21.60
2018-10-17T08:18:53.444Z,21.20
2018-10-17T08:20:29.206Z,20.80
2018-10-17T08:22:06.718Z,17.20
2018-10-17T08:23:43.597Z,21.60
2018-10-17T08:25:19.460Z,17.80
2018-10-17T08:26:55.684Z,20.40
2018-10-17T08:28:36.378Z,13.80
2018-10-17T08:30:15.875Z,14.40
2018-10-17T08:31:52.816Z,14.20
2018-10-17T08:33:30.599Z,14.60
2018-10-17T08:35:09.392Z,16.80
2018-10-17T08:36:50.254Z,16.00
2018-10-17T08:38:27.950Z,14.00
2018-10-17T08:40:04.841Z,17.20
2018-10-17T08:41:45.021Z,15.60
2018-10-17T08:43:26.071Z,16.00
2018-10-17T08:45:04.781Z,12.80
2018-10-17T08:46:41.984Z,6.60
2018-10-17T08:48:19.694Z,16.80
2018-10-17T08:49:59.450Z,15.20
2018-10-17T08:51:35.827Z,16.20
2018-10-17T08:53:12.440Z,14.40
2018-10-17T08:54:50.750Z,16.20
2018-10-17T08:56:27.498Z,13.60
2018-10-17T08:58:03.909Z,13.60
2018-10-17T08:59:42.198Z,12.40
2018-10-17T09:01:18.914Z,16.00
2018-10-17T09:02:55.899Z,18.80
2018-10-17T09:04:35.110Z,15.00
2018-10-17T09:06:14.047Z,12.20
2018-10-17T09:07:54.949Z,12.40
2018-10-17T09:09:32.246Z,12.20
2018-10-17T09:11:08.315Z,12.60
2018-10-17T09:12:45.171Z,12.40
2018-10-17T09:14:24.761Z,14.00
2018-10-17T09:16:01.387Z,13.80
2018-10-17T09:17:40.600Z,15.80
2018-10-17T09:19:16.603Z,13.40
2018-10-17T09:21:00.845Z,12.20
2018-10-17T09:22:36.415Z,13.00
2018-10-17T09:24:13.569Z,13.80
2018-10-17T09:25:50.384Z,11.80
2018-10-17T09:27:26.748Z,13.20
2018-10-17T09:29:05.936Z,15.60
2018-10-17T09:30:43.908Z,9.00
2018-10-17T09:32:20.645Z,14.20
2018-10-17T09:33:58.472Z,12.00
2018-10-17T09:35:39.573Z,15.60
2018-10-17T09:37:18.276Z,13.60
2018-10-17T09:38:53.898Z,13.20
2018-10-17T09:40:29.640Z,11.00
2018-10-17T09:42:05.484Z,12.60
2018-10-17T09:43:42.271Z,11.20
2018-10-17T09:45:18.418Z,14.00
2018-10-17T09:46:54.633Z,11.20
2018-10-17T09:48:30.509Z,13.20
2018-10-17T09:50:07.041Z,11.80
2018-10-17T09:51:44.900Z,12.40
2018-10-17T09:53:24.592Z,15.20
2018-10-17T09:55:01.565Z,15.20
2018-10-17T09:56:39.798Z,14.00
2018-10-17T09:58:16.663Z,13.60
2018-10-17T09:59:56.339Z,13.40
2018-10-17T10:01:39.051Z,17.80
2018-10-17T10:03:15.345Z,14.20
2018-10-17T10:04:55.381Z,12.20
2018-10-17T10:06:32.569Z,9.00
2018-10-17T10:08:09.838Z,11.80
2018-10-17T10:09:46.243Z,13.00
2018-10-17T10:11:22.260Z,13.00
2018-10-17T10:12:57.795Z,10.20
2018-10-17T10:14:34.623Z,11.40
2018-10-17T10:16:10.704Z,13.60
2018-10-17T10:17:46.655Z,10.40
2018-10-17T10:19:22.500Z,11.40
2018-10-17T10:21:00.063Z,4.00
2018-10-17T10:22:41.285Z,8.40
2018-10-17T10:24:19.499Z,10.80
2018-10-17T10:25:59.735Z,13.00
2018-10-17T10:27:37.616Z,12.00
2018-10-17T10:29:14.310Z,14.20
2018-10-17T10:30:51.229Z,12.40
2018-10-17T10:32:27.651Z,11.20
2018-10-17T10:34:04.401Z,11.80
2018-10-17T10:35:48.787Z,7.40
2018-10-17T10:37:27.351Z,10.60
2018-10-17T10:39:05.250Z,12.80
2018-10-17T10:40:42.372Z,9.20
2018-10-17T10:42:19.224Z,13.00
2018-10-17T10:43:55.606Z,12.20
2018-10-17T10:45:34.647Z,8.20
2018-10-17T10:47:13.887Z,8.80
2018-10-17T10:48:50.206Z,9.40
2018-10-17T10:50:26.619Z,10.20
2018-10-17T10:52:04.390Z,11.20
2018-10-17T10:53:44.676Z,9.80
2018-10-17T10:55:22.110Z,11.40
2018-10-17T10:56:58.700Z,12.00
2018-10-17T10:58:34.744Z,10.60
2018-10-17T11:00:13.242Z,9.20
2018-10-17T11:01:49.588Z,11.40
2018-10-17T11:03:27.768Z,8.60
2018-10-17T11:05:03.562Z,9.40
2018-10-17T11:06:39.079Z,6.80
2018-10-17T11:08:15.802Z,12.20
2018-10-17T11:09:53.663Z,11.00
2018-10-17T11:11:30.040Z,9.00
2018-10-17T11:13:05.421Z,9.60
2018-10-17T11:14:43.121Z,9.20
2018-10-17T11:16:21.798Z,12.00
2018-10-17T11:18:00.516Z,10.40
2018-10-17T11:19:38.320Z,9.00
2018-10-17T11:21:15.497Z,11.00
2018-10-17T11:22:51.382Z,11.60
2018-10-17T11:24:27.644Z,5.00
2018-10-17T11:26:05.762Z,11.00
2018-10-17T11:27:42.071Z,11.20
2018-10-17T11:29:20.519Z,10.40
2018-10-17T11:30:59.915Z,10.20
2018-10-17T11:34:19.329Z,10.40
2018-10-17T11:35:58.505Z,11.00
2018-10-17T11:37:35.503Z,11.60
2018-10-17T11:39:14.070Z,10.80
2018-10-17T11:40:53.916Z,11.60
2018-10-17T11:42:31.041Z,10.40
2018-10-17T11:44:11.743Z,13.80
2018-10-17T11:45:54.496Z,11.40
2018-10-17T11:47:30.352Z,9.80
2018-10-17T11:49:08.307Z,12.60
2018-10-17T11:50:54.707Z,14.00
2018-10-17T11:52:34.357Z,15.60
2018-10-17T11:54:10.279Z,14.40
2018-10-17T11:55:47.333Z,16.20
2018-10-17T11:57:24.618Z,13.40
2018-10-17T11:59:02.085Z,10.20
2018-10-17T12:00:40.254Z,9.00
2018-10-17T12:02:16.257Z,11.40
2018-10-17T12:03:56.043Z,8.80
2018-10-17T12:05:34.218Z,13.80
2018-10-17T12:07:11.520Z,11.20
2018-10-17T12:08:46.683Z,14.00
2018-10-17T12:10:22.053Z,12.20
2018-10-17T12:11:58.186Z,10.60
2018-10-17T12:13:33.945Z,12.40
2018-10-17T12:15:13.705Z,12.60
2018-10-17T12:16:49.609Z,11.00
2018-10-17T12:18:25.590Z,12.40
2018-10-17T12:20:02.763Z,12.80
2018-10-17T12:21:38.592Z,15.80
2018-10-17T12:23:18.213Z,9.00
2018-10-17T12:25:00.072Z,14.40
2018-10-17T12:26:37.730Z,14.00
2018-10-17T12:28:14.551Z,13.00
2018-10-17T12:29:50.119Z,15.40
2018-10-17T12:31:34.198Z,16.80
2018-10-17T12:33:11.617Z,14.00
2018-10-17T12:34:49.126Z,13.00
2018-10-17T12:39:06.975Z,14.80
2018-10-17T12:40:43.804Z,15.80
2018-10-17T12:42:22.290Z,15.20
2018-10-17T12:44:01.776Z,13.40
2018-10-17T12:45:37.357Z,13.00
2018-10-17T12:47:13.066Z,15.00
2018-10-17T12:48:50.278Z,13.40
2018-10-17T12:50:28.660Z,14.80
2018-10-17T12:52:06.537Z,13.20
2018-10-17T12:53:42.792Z,15.40
2018-10-17T12:55:20.539Z,15.40
2018-10-17T12:56:57.234Z,11.60
2018-10-17T12:58:33.691Z,14.60
2018-10-17T13:00:14.553Z,14.80
2018-10-17T13:01:51.128Z,11.00
2018-10-17T13:03:28.650Z,12.00
2018-10-17T13:05:05.448Z,13.80
2018-10-17T13:06:44.482Z,14.40
2018-10-17T13:08:21.690Z,14.00
2018-10-17T13:09:57.733Z,12.80
2018-10-17T13:11:34.645Z,13.60
2018-10-17T13:13:11.363Z,14.80
2018-10-17T13:14:47.279Z,17.20
2018-10-17T13:16:23.059Z,14.00
2018-10-17T13:19:42.575Z,12.20
2018-10-17T13:21:18.826Z,15.20
2018-10-17T13:22:54.366Z,12.80
2018-10-17T13:24:30.691Z,10.60
2018-10-17T13:26:06.873Z,12.80
2018-10-17T13:27:50.895Z,14.40
2018-10-17T13:29:27.947Z,16.00
2018-10-17T13:31:18.049Z,16.60
2018-10-17T13:32:57.361Z,14.40
2018-10-17T13:34:34.295Z,15.00
2018-10-17T13:36:15.049Z,13.00
2018-10-17T13:37:51.024Z,14.00
2018-10-17T13:39:27.698Z,17.80
2018-10-17T13:41:03.271Z,16.40
2018-10-17T13:42:42.249Z,15.40
2018-10-17T13:44:18.896Z,14.80
2018-10-17T13:45:58.804Z,15.40
2018-10-17T13:47:38.098Z,13.20
2018-10-17T13:49:18.464Z,13.20
2018-10-17T13:50:54.436Z,12.00
2018-10-17T13:52:33.359Z,14.80
2018-10-17T13:54:12.692Z,12.40
2018-10-17T13:56:03.333Z,16.20
2018-10-17T13:57:41.104Z,14.00
2018-10-17T13:59:19.150Z,13.00
2018-10-17T14:00:59.292Z,14.60
2018-10-17T14:02:37.959Z,14.00
2018-10-17T14:04:17.171Z,13.60
2018-10-17T14:05:54.901Z,12.80
2018-10-17T14:07:37.851Z,15.20
2018-10-17T14:09:19.001Z,13.00
2018-10-17T14:10:57.878Z,16.40
2018-10-17T14:12:39.242Z,10.00
2018-10-17T14:14:17.425Z,15.00
2018-10-17T14:15:56.063Z,15.20
2018-10-17T14:17:32.198Z,18.00
2018-10-17T14:19:07.680Z,14.00
2018-10-17T14:20:43.979Z,14.60
2018-10-17T14:22:21.723Z,15.80
2018-10-17T14:23:58.766Z,17.80
2018-10-17T14:25:34.813Z,15.80
2018-10-17T14:27:11.412Z,16.60
2018-10-17T14:28:48.968Z,17.40
2018-10-17T14:30:24.892Z,17.20
2018-10-17T14:34:00.640Z,12.40
2018-10-17T14:35:38.235Z,13.20
2018-10-17T14:37:15.049Z,18.80
2018-10-17T14:38:52.402Z,16.60
2018-10-17T14:40:31.681Z,14.00
2018-10-17T14:42:11.416Z,11.80
2018-10-17T14:43:48.554Z,14.20
2018-10-17T14:45:24.462Z,14.80
2018-10-17T14:47:01.099Z,12.00
2018-10-17T14:48:38.297Z,12.40
2018-10-17T14:50:18.019Z,13.60
2018-10-17T14:51:55.216Z,13.40
2018-10-17T14:53:32.287Z,9.20
2018-10-17T14:55:11.569Z,15.40
2018-10-17T14:56:48.546Z,11.60
2018-10-17T14:58:23.987Z,15.00
2018-10-17T15:00:03.333Z,13.80
2018-10-17T15:01:42.584Z,16.80
2018-10-17T15:05:28.078Z,15.00
2018-10-17T15:09:04.049Z,17.60
2018-10-17T15:11:04.552Z,14.40
2018-10-17T15:12:48.386Z,10.00
2018-10-17T15:14:26.770Z,13.40
2018-10-17T15:18:07.284Z,17.00
2018-10-17T15:19:46.558Z,15.60
2018-10-17T15:21:27.259Z,15.60
2018-10-17T15:23:07.992Z,13.20
2018-10-17T15:24:48.026Z,11.80
2018-10-17T15:26:24.273Z,14.00
2018-10-17T15:28:02.958Z,11.80
2018-10-17T15:29:45.985Z,14.00
2018-10-17T15:31:25.935Z,14.20
2018-10-17T15:33:07.794Z,15.20
2018-10-17T15:34:48.302Z,15.20
2018-10-17T15:36:26.086Z,14.40
2018-10-17T15:38:02.046Z,17.80
2018-10-17T15:39:40.610Z,16.00
2018-10-17T15:41:18.769Z,13.60
2018-10-17T15:42:57.829Z,12.00
2018-10-17T15:44:36.840Z,16.40
2018-10-17T15:46:24.408Z,13.60
2018-10-17T15:48:05.599Z,15.00
2018-10-17T15:49:46.130Z,15.00
2018-10-17T15:51:24.214Z,14.40
2018-10-17T15:53:02.456Z,13.80
2018-10-17T15:54:39.358Z,14.40
2018-10-17T15:56:17.445Z,15.80
2018-10-17T15:57:59.625Z,16.20
2018-10-17T15:59:37.346Z,13.80
2018-10-17T16:01:18.767Z,11.60
2018-10-17T16:02:57.053Z,14.80
2018-10-17T16:04:33.997Z,14.60
2018-10-17T16:08:07.169Z,13.20
2018-10-17T16:09:44.415Z,16.00
2018-10-17T16:11:30.106Z,13.20
2018-10-17T16:13:09.055Z,14.60
2018-10-17T16:14:52.672Z,15.80
2018-10-17T16:16:34.019Z,13.80
2018-10-17T16:18:14.269Z,9.80
2018-10-17T16:19:55.143Z,11.80
2018-10-17T16:21:38.449Z,13.60
2018-10-17T16:23:23.655Z,14.20
2018-10-17T16:25:08.482Z,14.40
2018-10-17T16:26:47.618Z,16.80
2018-10-17T16:30:14.751Z,14.20
2018-10-17T16:31:51.837Z,13.20
2018-10-17T16:33:35.158Z,17.60
2018-10-17T16:35:16.801Z,13.40
2018-10-17T16:37:00.214Z,11.60
2018-10-17T16:38:47.153Z,16.60
2018-10-17T16:40:24.918Z,17.40
2018-10-17T16:42:19.853Z,14.20
2018-10-17T16:44:01.639Z,14.20
2018-10-17T16:45:41.884Z,14.60
2018-10-17T16:47:23.104Z,11.40
2018-10-17T16:49:04.814Z,18.20
2018-10-17T16:50:44.647Z,14.60
2018-10-17T16:52:23.963Z,14.20
2018-10-17T16:54:01.348Z,9.40
2018-10-17T16:55:39.469Z,15.60
2018-10-17T16:57:19.091Z,15.20
2018-10-17T17:01:34.627Z,15.60
2018-10-17T17:03:21.581Z,13.60
2018-10-17T17:05:03.543Z,14.20
2018-10-17T17:07:51.676Z,15.80
2018-10-17T17:09:32.015Z,14.20
2018-10-17T17:11:13.388Z,18.60
2018-10-17T17:12:51.265Z,5.20
2018-10-17T17:14:29.362Z,16.60
2018-10-17T17:16:13.599Z,14.60
2018-10-17T17:19:49.692Z,17.00
2018-10-17T17:21:34.009Z,16.60
2018-10-17T17:23:14.571Z,16.20
2018-10-17T17:24:55.841Z,20.00
2018-10-17T17:26:52.783Z,17.40
2018-10-17T17:28:35.642Z,15.00
2018-10-17T17:30:22.662Z,13.00
2018-10-17T17:32:08.505Z,17.40
2018-10-17T17:33:55.151Z,16.40
2018-10-17T17:35:33.352Z,16.60
2018-10-17T17:37:12.935Z,14.80
2018-10-17T17:38:55.802Z,14.40
2018-10-17T17:40:37.235Z,19.40
2018-10-17T17:42:19.530Z,16.80
2018-10-17T17:44:02.629Z,17.20
2018-10-17T17:45:41.666Z,16.60
2018-10-17T17:47:21.290Z,18.00
2018-10-17T17:49:10.546Z,20.60
2018-10-17T17:50:54.610Z,17.20
2018-10-17T17:52:33.233Z,19.40
2018-10-17T17:54:14.238Z,17.20
2018-10-17T17:55:54.935Z,21.80
2018-10-17T18:00:43.736Z,23.20
2018-10-17T18:02:19.772Z,16.40
2018-10-17T18:03:55.873Z,20.00
2018-10-17T18:05:32.991Z,25.40
2018-10-17T18:07:15.726Z,27.00
2018-10-17T18:08:54.303Z,20.80
2018-10-17T18:10:31.663Z,24.80
2018-10-17T18:12:10.368Z,25.80
2018-10-17T18:13:52.326Z,26.20
2018-10-17T18:17:25.511Z,23.80
2018-10-17T18:19:12.363Z,24.40
2018-10-17T18:21:17.283Z,20.60
2018-10-17T18:23:01.852Z,27.20
2018-10-17T18:24:42.353Z,27.00
2018-10-17T18:26:21.158Z,22.60
2018-10-17T18:27:57.963Z,28.80
2018-10-17T18:29:34.939Z,25.20
2018-10-17T18:31:11.117Z,29.20
2018-10-17T18:32:48.693Z,28.60
2018-10-17T18:34:25.859Z,23.80
2018-10-17T18:36:03.953Z,27.00
2018-10-17T18:37:42.538Z,29.00
2018-10-17T18:39:22.413Z,28.80
2018-10-17T18:41:17.769Z,33.20
2018-10-17T18:43:12.839Z,25.00
2018-10-17T18:44:49.102Z,32.00
2018-10-17T18:46:38.815Z,33.80
2018-10-17T18:48:18.366Z,32.60
2018-10-17T18:49:58.394Z,24.60
2018-10-17T18:51:35.402Z,36.00
2018-10-17T18:53:16.033Z,36.60
2018-10-17T18:54:52.511Z,35.00
2018-10-17T18:58:26.708Z,29.60
2018-10-17T19:00:06.515Z,35.40
2018-10-17T19:01:43.501Z,39.20
2018-10-17T19:05:16.913Z,36.20
2018-10-17T19:06:53.896Z,28.00
2018-10-17T19:08:36.564Z,38.00
2018-10-17T19:10:15.363Z,32.00
2018-10-17T19:11:54.837Z,30.60
2018-10-17T19:13:31.713Z,43.00
2018-10-17T19:15:09.169Z,33.80
2018-10-17T19:16:45.092Z,37.80
2018-10-17T19:18:21.340Z,41.80
2018-10-17T19:19:59.359Z,38.40
2018-10-17T19:21:37.278Z,42.20
2018-10-17T19:23:12.386Z,44.80
2018-10-17T19:24:48.179Z,43.20
2018-10-17T19:26:25.092Z,38.60
2018-10-17T19:28:01.616Z,41.60
2018-10-17T19:29:41.686Z,45.60
2018-10-17T19:31:19.954Z,43.80
2018-10-17T19:32:59.736Z,39.00
2018-10-17T19:34:35.720Z,42.80
2018-10-17T19:36:12.985Z,41.60
2018-10-17T19:37:49.555Z,35.20
2018-10-17T19:39:26.921Z,45.00
2018-10-17T19:41:04.081Z,42.60
2018-10-17T19:42:41.098Z,40.00
2018-10-17T19:44:19.313Z,43.60
2018-10-17T19:45:55.240Z,51.80
2018-10-17T19:47:33.851Z,39.40
2018-10-17T19:49:10.634Z,40.60
2018-10-17T19:50:46.833Z,46.00
2018-10-17T19:52:24.313Z,51.80
2018-10-17T19:54:09.240Z,41.20
2018-10-17T19:55:44.645Z,45.80
2018-10-17T19:57:20.339Z,45.20
2018-10-17T19:59:02.676Z,35.00
2018-10-17T20:00:42.090Z,43.40
2018-10-17T20:02:19.622Z,45.60
2018-10-17T20:04:02.460Z,46.60
2018-10-17T20:05:43.669Z,49.80
2018-10-17T20:07:21.394Z,47.60
2018-10-17T20:08:59.975Z,27.80
2018-10-17T20:10:36.050Z,48.00
2018-10-17T20:12:12.534Z,41.60
2018-10-17T20:13:49.802Z,34.80
2018-10-17T20:15:28.899Z,45.00
2018-10-17T20:17:12.642Z,49.40
2018-10-17T20:18:49.800Z,47.20
2018-10-17T20:20:38.387Z,47.60
2018-10-17T20:22:21.477Z,52.80
2018-10-17T20:23:57.562Z,55.40
2018-10-17T20:25:37.745Z,46.80
2018-10-17T20:27:15.636Z,55.60
2018-10-17T20:28:56.214Z,40.20
2018-10-17T20:30:33.988Z,51.60
2018-10-17T20:32:12.690Z,62.40
2018-10-17T20:33:48.861Z,64.60
2018-10-17T20:35:27.288Z,53.00
2018-10-17T20:37:04.002Z,60.60
2018-10-17T20:38:39.363Z,61.20
2018-10-17T20:40:14.388Z,53.80
2018-10-17T20:41:50.774Z,64.80
2018-10-17T20:43:25.748Z,59.40
2018-10-17T20:45:05.696Z,51.60
2018-10-17T20:46:42.398Z,56.00
2018-10-17T20:48:21.515Z,64.00
2018-10-17T20:50:05.336Z,60.60
2018-10-17T20:51:40.563Z,60.20
2018-10-17T20:53:17.721Z,58.40
2018-10-17T20:54:55.387Z,61.20
2018-10-17T20:56:31.406Z,52.40
2018-10-17T20:58:06.782Z,61.80
2018-10-17T20:59:42.515Z,58.20
2018-10-17T21:01:19.359Z,55.20
2018-10-17T21:02:55.245Z,55.20
2018-10-17T21:04:37.332Z,65.80
2018-10-17T21:06:15.608Z,54.20
2018-10-17T21:07:51.484Z,55.60
2018-10-17T21:09:33.005Z,58.60
2018-10-17T21:11:09.225Z,57.00
2018-10-17T21:12:48.489Z,64.00
2018-10-17T21:14:30.585Z,66.60
2018-10-17T21:16:07.527Z,63.40
2018-10-17T21:17:43.734Z,60.80
2018-10-17T21:19:20.489Z,60.80
2018-10-17T21:20:57.468Z,60.20
2018-10-17T21:22:33.787Z,62.60
2018-10-17T21:24:10.884Z,61.00
2018-10-17T21:25:46.571Z,61.00
2018-10-17T21:27:21.684Z,65.80
2018-10-17T21:29:00.427Z,71.60
2018-10-17T21:30:44.282Z,65.60
2018-10-17T21:32:20.946Z,56.80
2018-10-17T21:33:58.737Z,67.00
2018-10-17T21:37:18.483Z,68.60
2018-10-17T21:38:55.524Z,69.40
2018-10-17T21:40:32.260Z,69.40
2018-10-17T21:42:08.548Z,69.00
2018-10-17T21:43:45.943Z,67.80